sensor_id;sensor_type;location;lat;lon;timestamp;P1;durP1;ratioP1;P2;durP2;ratioP2
73239;SDS011;61452;40.054;4.110;2023-05-27T00:03:04;3.45;;;2.80;;
73239;SDS011;61452;40.054;4.110;2023-05-27T00:08:06;4.35;;;2.53;;
73239;SDS011;61452;40.054;4.110;2023-05-27T00:13:08;3.42;;;2.38;;
73239;SDS011;61452;40.054;4.110;2023-05-27T00:18:11;3.20;;;2.60;;
73239;SDS011;61452;40.054;4.110;2023-05-27T00:23:13;4.72;;;2.47;;
73239;SDS011;61452;40.054;4.110;2023-05-27T00:28:16;3.42;;;2.63;;
73239;SDS011;61452;40.054;4.110;2023-05-27T00:33:19;3.25;;;2.63;;
73239;SDS011;61452;40.054;4.110;2023-05-27T00:38:21;3.28;;;2.63;;
73239;SDS011;61452;40.054;4.110;2023-05-27T00:43:23;3.85;;;2.70;;
73239;SDS011;61452;40.054;4.110;2023-05-27T00:48:25;5.00;;;3.15;;
73239;SDS011;61452;40.054;4.110;2023-05-27T00:53:27;3.17;;;2.65;;
73239;SDS011;61452;40.054;4.110;2023-05-27T00:58:33;3.08;;;2.50;;
73239;SDS011;61452;40.054;4.110;2023-05-27T01:03:36;3.30;;;3.00;;
73239;SDS011;61452;40.054;4.110;2023-05-27T01:14:02;3.15;;;2.50;;
73239;SDS011;61452;40.054;4.110;2023-05-27T01:19:11;2.80;;;2.47;;
73239;SDS011;61452;40.054;4.110;2023-05-27T01:24:16;3.00;;;2.30;;
73239;SDS011;61452;40.054;4.110;2023-05-27T01:29:19;2.72;;;2.38;;
73239;SDS011;61452;40.054;4.110;2023-05-27T01:34:24;3.33;;;2.67;;
73239;SDS011;61452;40.054;4.110;2023-05-27T01:39:32;3.22;;;2.53;;
73239;SDS011;61452;40.054;4.110;2023-05-27T01:44:35;4.68;;;2.70;;
73239;SDS011;61452;40.054;4.110;2023-05-27T01:49:38;3.85;;;2.55;;
73239;SDS011;61452;40.054;4.110;2023-05-27T01:54:40;3.45;;;2.67;;
73239;SDS011;61452;40.054;4.110;2023-05-27T01:59:42;2.72;;;2.45;;
73239;SDS011;61452;40.054;4.110;2023-05-27T02:04:44;3.50;;;2.80;;
73239;SDS011;61452;40.054;4.110;2023-05-27T02:09:46;2.88;;;2.38;;
73239;SDS011;61452;40.054;4.110;2023-05-27T02:14:48;3.00;;;2.70;;
73239;SDS011;61452;40.054;4.110;2023-05-27T02:19:51;3.40;;;2.50;;
73239;SDS011;61452;40.054;4.110;2023-05-27T02:24:53;2.95;;;2.22;;
73239;SDS011;61452;40.054;4.110;2023-05-27T02:29:55;3.38;;;2.47;;
73239;SDS011;61452;40.054;4.110;2023-05-27T02:34:58;4.88;;;2.83;;
73239;SDS011;61452;40.054;4.110;2023-05-27T02:40:00;3.08;;;2.20;;
73239;SDS011;61452;40.054;4.110;2023-05-27T02:45:05;4.03;;;3.00;;
73239;SDS011;61452;40.054;4.110;2023-05-27T02:55:11;3.90;;;2.70;;
73239;SDS011;61452;40.054;4.110;2023-05-27T03:00:13;4.70;;;2.75;;
73239;SDS011;61452;40.054;4.110;2023-05-27T03:05:15;4.45;;;2.53;;
73239;SDS011;61452;40.054;4.110;2023-05-27T03:10:17;3.33;;;2.50;;
73239;SDS011;61452;40.054;4.110;2023-05-27T03:15:19;4.47;;;2.72;;
73239;SDS011;61452;40.054;4.110;2023-05-27T03:20:23;2.90;;;2.47;;
73239;SDS011;61452;40.054;4.110;2023-05-27T03:25:26;3.80;;;2.40;;
73239;SDS011;61452;40.054;4.110;2023-05-27T03:30:29;3.17;;;2.38;;
73239;SDS011;61452;40.054;4.110;2023-05-27T03:35:32;4.25;;;2.60;;
73239;SDS011;61452;40.054;4.110;2023-05-27T03:40:34;4.40;;;2.53;;
73239;SDS011;61452;40.054;4.110;2023-05-27T03:45:40;3.42;;;2.35;;
73239;SDS011;61452;40.054;4.110;2023-05-27T03:50:43;5.15;;;3.05;;
73239;SDS011;61452;40.054;4.110;2023-05-27T03:55:45;4.32;;;2.42;;
73239;SDS011;61452;40.054;4.110;2023-05-27T04:00:47;4.45;;;2.30;;
73239;SDS011;61452;40.054;4.110;2023-05-27T04:05:50;3.28;;;2.67;;
73239;SDS011;61452;40.054;4.110;2023-05-27T04:10:52;4.13;;;2.47;;
73239;SDS011;61452;40.054;4.110;2023-05-27T04:15:55;3.95;;;2.88;;
73239;SDS011;61452;40.054;4.110;2023-05-27T04:20:58;4.20;;;2.85;;
73239;SDS011;61452;40.054;4.110;2023-05-27T04:26:02;4.32;;;2.70;;
73239;SDS011;61452;40.054;4.110;2023-05-27T04:31:08;3.70;;;2.78;;
73239;SDS011;61452;40.054;4.110;2023-05-27T04:36:20;4.13;;;2.58;;
73239;SDS011;61452;40.054;4.110;2023-05-27T04:41:36;3.30;;;2.63;;
73239;SDS011;61452;40.054;4.110;2023-05-27T04:46:59;4.40;;;2.60;;
73239;SDS011;61452;40.054;4.110;2023-05-27T04:52:02;4.15;;;2.47;;
73239;SDS011;61452;40.054;4.110;2023-05-27T04:57:04;3.00;;;2.60;;
73239;SDS011;61452;40.054;4.110;2023-05-27T05:02:06;3.33;;;2.60;;
73239;SDS011;61452;40.054;4.110;2023-05-27T05:07:24;3.10;;;2.50;;
73239;SDS011;61452;40.054;4.110;2023-05-27T05:12:26;3.25;;;2.55;;
73239;SDS011;61452;40.054;4.110;2023-05-27T05:17:29;4.03;;;2.95;;
73239;SDS011;61452;40.054;4.110;2023-05-27T05:22:31;4.22;;;2.80;;
73239;SDS011;61452;40.054;4.110;2023-05-27T05:27:34;3.35;;;2.58;;
73239;SDS011;61452;40.054;4.110;2023-05-27T05:32:38;3.78;;;2.70;;
73239;SDS011;61452;40.054;4.110;2023-05-27T05:37:41;2.83;;;2.25;;
73239;SDS011;61452;40.054;4.110;2023-05-27T05:42:43;3.28;;;2.35;;
73239;SDS011;61452;40.054;4.110;2023-05-27T05:47:46;3.33;;;2.33;;
73239;SDS011;61452;40.054;4.110;2023-05-27T05:52:53;2.90;;;2.33;;
73239;SDS011;61452;40.054;4.110;2023-05-27T05:57:55;3.30;;;2.53;;
73239;SDS011;61452;40.054;4.110;2023-05-27T06:02:58;4.05;;;2.53;;
73239;SDS011;61452;40.054;4.110;2023-05-27T06:08:17;3.97;;;2.83;;
73239;SDS011;61452;40.054;4.110;2023-05-27T06:13:29;3.85;;;2.65;;
73239;SDS011;61452;40.054;4.110;2023-05-27T06:18:33;3.55;;;2.45;;
73239;SDS011;61452;40.054;4.110;2023-05-27T06:23:35;4.38;;;2.45;;
73239;SDS011;61452;40.054;4.110;2023-05-27T06:28:46;4.00;;;2.40;;
73239;SDS011;61452;40.054;4.110;2023-05-27T06:33:50;3.80;;;2.40;;
73239;SDS011;61452;40.054;4.110;2023-05-27T06:38:52;3.40;;;2.45;;
73239;SDS011;61452;40.054;4.110;2023-05-27T06:43:55;4.57;;;2.38;;
73239;SDS011;61452;40.054;4.110;2023-05-27T06:49:11;3.72;;;2.22;;
73239;SDS011;61452;40.054;4.110;2023-05-27T06:54:14;2.85;;;2.38;;
73239;SDS011;61452;40.054;4.110;2023-05-27T06:59:18;3.53;;;2.45;;
73239;SDS011;61452;40.054;4.110;2023-05-27T07:04:21;3.42;;;2.45;;
73239;SDS011;61452;40.054;4.110;2023-05-27T07:09:27;3.50;;;2.50;;
73239;SDS011;61452;40.054;4.110;2023-05-27T07:14:30;3.35;;;2.40;;
73239;SDS011;61452;40.054;4.110;2023-05-27T07:19:32;3.65;;;2.38;;
73239;SDS011;61452;40.054;4.110;2023-05-27T07:24:38;3.25;;;2.67;;
73239;SDS011;61452;40.054;4.110;2023-05-27T07:29:41;3.17;;;2.88;;
73239;SDS011;61452;40.054;4.110;2023-05-27T07:34:46;3.83;;;2.45;;
73239;SDS011;61452;40.054;4.110;2023-05-27T07:39:49;3.92;;;2.40;;
73239;SDS011;61452;40.054;4.110;2023-05-27T07:44:53;4.60;;;2.60;;
73239;SDS011;61452;40.054;4.110;2023-05-27T07:49:56;3.92;;;2.67;;
73239;SDS011;61452;40.054;4.110;2023-05-27T07:55:10;3.88;;;2.40;;
73239;SDS011;61452;40.054;4.110;2023-05-27T08:00:13;3.88;;;2.40;;
73239;SDS011;61452;40.054;4.110;2023-05-27T08:05:27;2.42;;;2.20;;
73239;SDS011;61452;40.054;4.110;2023-05-27T08:10:55;3.60;;;2.20;;
73239;SDS011;61452;40.054;4.110;2023-05-27T08:16:33;3.50;;;2.67;;
73239;SDS011;61452;40.054;4.110;2023-05-27T08:21:45;5.18;;;2.72;;
73239;SDS011;61452;40.054;4.110;2023-05-27T08:27:14;3.33;;;2.30;;
73239;SDS011;61452;40.054;4.110;2023-05-27T08:32:39;3.17;;;2.42;;
73239;SDS011;61452;40.054;4.110;2023-05-27T08:37:43;3.47;;;2.22;;
73239;SDS011;61452;40.054;4.110;2023-05-27T08:42:46;3.03;;;2.10;;
73239;SDS011;61452;40.054;4.110;2023-05-27T08:47:50;4.68;;;2.78;;
73239;SDS011;61452;40.054;4.110;2023-05-27T08:53:04;3.58;;;2.22;;
73239;SDS011;61452;40.054;4.110;2023-05-27T08:58:07;2.75;;;2.33;;
73239;SDS011;61452;40.054;4.110;2023-05-27T09:03:15;3.38;;;2.45;;
73239;SDS011;61452;40.054;4.110;2023-05-27T09:13:25;3.40;;;2.58;;
73239;SDS011;61452;40.054;4.110;2023-05-27T09:18:32;2.72;;;2.22;;
73239;SDS011;61452;40.054;4.110;2023-05-27T09:23:40;3.03;;;2.20;;
73239;SDS011;61452;40.054;4.110;2023-05-27T09:28:42;2.95;;;2.25;;
73239;SDS011;61452;40.054;4.110;2023-05-27T09:33:45;3.25;;;2.33;;
73239;SDS011;61452;40.054;4.110;2023-05-27T09:38:47;3.65;;;2.47;;
73239;SDS011;61452;40.054;4.110;2023-05-27T09:43:55;3.03;;;2.10;;
73239;SDS011;61452;40.054;4.110;2023-05-27T09:48:58;2.88;;;2.40;;
73239;SDS011;61452;40.054;4.110;2023-05-27T09:54:01;3.35;;;2.45;;
73239;SDS011;61452;40.054;4.110;2023-05-27T09:59:04;4.00;;;2.25;;
73239;SDS011;61452;40.054;4.110;2023-05-27T10:04:07;2.92;;;2.63;;
73239;SDS011;61452;40.054;4.110;2023-05-27T10:09:10;3.13;;;1.95;;
73239;SDS011;61452;40.054;4.110;2023-05-27T10:14:15;3.17;;;2.38;;
73239;SDS011;61452;40.054;4.110;2023-05-27T10:19:17;3.13;;;2.58;;
73239;SDS011;61452;40.054;4.110;2023-05-27T10:24:20;3.20;;;2.40;;
73239;SDS011;61452;40.054;4.110;2023-05-27T10:29:36;2.30;;;2.10;;
73239;SDS011;61452;40.054;4.110;2023-05-27T10:34:42;2.75;;;2.10;;
73239;SDS011;61452;40.054;4.110;2023-05-27T10:39:55;2.97;;;2.17;;
73239;SDS011;61452;40.054;4.110;2023-05-27T10:45:04;3.33;;;2.25;;
73239;SDS011;61452;40.054;4.110;2023-05-27T10:50:09;2.55;;;2.00;;
73239;SDS011;61452;40.054;4.110;2023-05-27T10:55:13;3.42;;;2.00;;
73239;SDS011;61452;40.054;4.110;2023-05-27T11:00:16;3.53;;;1.98;;
73239;SDS011;61452;40.054;4.110;2023-05-27T11:05:27;3.47;;;2.60;;
73239;SDS011;61452;40.054;4.110;2023-05-27T11:10:30;2.30;;;2.10;;
73239;SDS011;61452;40.054;4.110;2023-05-27T11:15:32;2.80;;;2.47;;
73239;SDS011;61452;40.054;4.110;2023-05-27T11:20:35;2.55;;;2.05;;
73239;SDS011;61452;40.054;4.110;2023-05-27T11:25:43;3.15;;;2.03;;
73239;SDS011;61452;40.054;4.110;2023-05-27T11:30:45;3.05;;;2.10;;
73239;SDS011;61452;40.054;4.110;2023-05-27T11:35:50;2.80;;;2.20;;
73239;SDS011;61452;40.054;4.110;2023-05-27T11:40:52;3.47;;;2.15;;
73239;SDS011;61452;40.054;4.110;2023-05-27T11:46:01;3.05;;;2.00;;
73239;SDS011;61452;40.054;4.110;2023-05-27T11:51:05;3.08;;;2.10;;
73239;SDS011;61452;40.054;4.110;2023-05-27T11:56:07;3.15;;;2.30;;
73239;SDS011;61452;40.054;4.110;2023-05-27T12:01:09;2.28;;;2.00;;
73239;SDS011;61452;40.054;4.110;2023-05-27T12:06:11;3.00;;;2.30;;
73239;SDS011;61452;40.054;4.110;2023-05-27T12:11:13;3.08;;;1.98;;
73239;SDS011;61452;40.054;4.110;2023-05-27T12:16:15;2.90;;;2.33;;
73239;SDS011;61452;40.054;4.110;2023-05-27T12:21:18;3.72;;;2.15;;
73239;SDS011;61452;40.054;4.110;2023-05-27T12:26:21;2.78;;;2.10;;
73239;SDS011;61452;40.054;4.110;2023-05-27T12:31:24;3.58;;;2.20;;
73239;SDS011;61452;40.054;4.110;2023-05-27T12:36:26;2.30;;;1.83;;
73239;SDS011;61452;40.054;4.110;2023-05-27T12:41:28;2.08;;;1.85;;
73239;SDS011;61452;40.054;4.110;2023-05-27T12:46:30;3.17;;;2.05;;
73239;SDS011;61452;40.054;4.110;2023-05-27T12:51:32;2.40;;;1.92;;
73239;SDS011;61452;40.054;4.110;2023-05-27T12:56:35;2.83;;;1.95;;
73239;SDS011;61452;40.054;4.110;2023-05-27T13:01:37;2.92;;;2.08;;
73239;SDS011;61452;40.054;4.110;2023-05-27T13:06:39;2.72;;;2.00;;
73239;SDS011;61452;40.054;4.110;2023-05-27T13:11:42;2.10;;;1.88;;
73239;SDS011;61452;40.054;4.110;2023-05-27T13:16:44;2.85;;;2.00;;
73239;SDS011;61452;40.054;4.110;2023-05-27T13:21:46;2.75;;;1.90;;
73239;SDS011;61452;40.054;4.110;2023-05-27T13:26:49;2.92;;;2.15;;
73239;SDS011;61452;40.054;4.110;2023-05-27T13:31:51;2.42;;;2.15;;
73239;SDS011;61452;40.054;4.110;2023-05-27T13:36:54;2.75;;;1.90;;
73239;SDS011;61452;40.054;4.110;2023-05-27T13:41:56;3.13;;;1.75;;
73239;SDS011;61452;40.054;4.110;2023-05-27T13:46:58;1.85;;;1.70;;
73239;SDS011;61452;40.054;4.110;2023-05-27T13:52:00;2.83;;;1.88;;
73239;SDS011;61452;40.054;4.110;2023-05-27T13:57:02;2.75;;;2.20;;
73239;SDS011;61452;40.054;4.110;2023-05-27T14:07:11;2.95;;;1.92;;
73239;SDS011;61452;40.054;4.110;2023-05-27T14:12:13;2.35;;;1.90;;
73239;SDS011;61452;40.054;4.110;2023-05-27T14:17:15;2.17;;;1.80;;
73239;SDS011;61452;40.054;4.110;2023-05-27T14:22:17;3.47;;;1.90;;
73239;SDS011;61452;40.054;4.110;2023-05-27T14:27:19;2.78;;;2.10;;
73239;SDS011;61452;40.054;4.110;2023-05-27T14:32:21;3.17;;;2.03;;
73239;SDS011;61452;40.054;4.110;2023-05-27T14:37:23;3.60;;;2.10;;
73239;SDS011;61452;40.054;4.110;2023-05-27T14:42:25;2.33;;;2.10;;
73239;SDS011;61452;40.054;4.110;2023-05-27T14:47:27;2.10;;;1.90;;
73239;SDS011;61452;40.054;4.110;2023-05-27T14:52:30;3.20;;;2.20;;
73239;SDS011;61452;40.054;4.110;2023-05-27T14:57:32;3.65;;;2.00;;
73239;SDS011;61452;40.054;4.110;2023-05-27T15:02:37;3.75;;;1.60;;
73239;SDS011;61452;40.054;4.110;2023-05-27T15:07:39;2.88;;;2.05;;
73239;SDS011;61452;40.054;4.110;2023-05-27T15:12:42;3.67;;;2.10;;
73239;SDS011;61452;40.054;4.110;2023-05-27T15:17:48;2.15;;;1.80;;
73239;SDS011;61452;40.054;4.110;2023-05-27T15:22:50;2.42;;;1.92;;
73239;SDS011;61452;40.054;4.110;2023-05-27T15:27:53;3.05;;;2.10;;
73239;SDS011;61452;40.054;4.110;2023-05-27T15:32:55;2.33;;;2.13;;
73239;SDS011;61452;40.054;4.110;2023-05-27T15:37:57;3.45;;;1.70;;
73239;SDS011;61452;40.054;4.110;2023-05-27T15:42:59;2.67;;;1.90;;
73239;SDS011;61452;40.054;4.110;2023-05-27T15:48:01;2.95;;;1.85;;
73239;SDS011;61452;40.054;4.110;2023-05-27T15:53:04;3.15;;;1.92;;
73239;SDS011;61452;40.054;4.110;2023-05-27T15:58:07;2.70;;;1.90;;
73239;SDS011;61452;40.054;4.110;2023-05-27T16:03:09;3.60;;;2.03;;
73239;SDS011;61452;40.054;4.110;2023-05-27T16:08:11;2.95;;;1.83;;
73239;SDS011;61452;40.054;4.110;2023-05-27T16:13:13;3.30;;;1.90;;
73239;SDS011;61452;40.054;4.110;2023-05-27T16:18:16;3.75;;;2.08;;
73239;SDS011;61452;40.054;4.110;2023-05-27T16:23:22;2.95;;;2.00;;
73239;SDS011;61452;40.054;4.110;2023-05-27T16:28:24;3.08;;;2.35;;
73239;SDS011;61452;40.054;4.110;2023-05-27T16:33:26;2.60;;;1.92;;
73239;SDS011;61452;40.054;4.110;2023-05-27T16:38:28;2.90;;;1.90;;
73239;SDS011;61452;40.054;4.110;2023-05-27T16:43:30;2.38;;;1.90;;
73239;SDS011;61452;40.054;4.110;2023-05-27T16:48:32;2.80;;;1.98;;
73239;SDS011;61452;40.054;4.110;2023-05-27T16:53:35;3.10;;;1.75;;
73239;SDS011;61452;40.054;4.110;2023-05-27T16:58:37;2.70;;;2.00;;
73239;SDS011;61452;40.054;4.110;2023-05-27T17:03:39;3.22;;;2.35;;
73239;SDS011;61452;40.054;4.110;2023-05-27T17:08:41;3.97;;;2.00;;
73239;SDS011;61452;40.054;4.110;2023-05-27T17:13:46;2.65;;;1.80;;
73239;SDS011;61452;40.054;4.110;2023-05-27T17:18:49;2.78;;;1.95;;
73239;SDS011;61452;40.054;4.110;2023-05-27T17:23:51;2.45;;;1.90;;
73239;SDS011;61452;40.054;4.110;2023-05-27T17:28:53;2.42;;;1.90;;
73239;SDS011;61452;40.054;4.110;2023-05-27T17:33:55;2.40;;;1.95;;
73239;SDS011;61452;40.054;4.110;2023-05-27T17:38:58;2.97;;;2.00;;
73239;SDS011;61452;40.054;4.110;2023-05-27T17:44:01;2.95;;;1.80;;
73239;SDS011;61452;40.054;4.110;2023-05-27T17:49:03;2.63;;;1.92;;
73239;SDS011;61452;40.054;4.110;2023-05-27T17:54:06;3.35;;;2.00;;
73239;SDS011;61452;40.054;4.110;2023-05-27T17:59:09;3.03;;;2.20;;
73239;SDS011;61452;40.054;4.110;2023-05-27T18:04:11;2.95;;;2.20;;
73239;SDS011;61452;40.054;4.110;2023-05-27T18:09:13;2.95;;;2.00;;
73239;SDS011;61452;40.054;4.110;2023-05-27T18:14:15;2.40;;;1.67;;
73239;SDS011;61452;40.054;4.110;2023-05-27T18:19:18;3.42;;;2.20;;
73239;SDS011;61452;40.054;4.110;2023-05-27T18:24:20;3.30;;;2.25;;
73239;SDS011;61452;40.054;4.110;2023-05-27T18:29:22;3.13;;;2.08;;
73239;SDS011;61452;40.054;4.110;2023-05-27T18:34:24;2.47;;;2.10;;
73239;SDS011;61452;40.054;4.110;2023-05-27T18:39:27;3.17;;;2.28;;
73239;SDS011;61452;40.054;4.110;2023-05-27T18:44:29;2.38;;;1.90;;
73239;SDS011;61452;40.054;4.110;2023-05-27T18:49:31;2.60;;;2.00;;
73239;SDS011;61452;40.054;4.110;2023-05-27T18:54:34;3.35;;;1.98;;
73239;SDS011;61452;40.054;4.110;2023-05-27T18:59:36;2.58;;;2.20;;
73239;SDS011;61452;40.054;4.110;2023-05-27T19:04:38;2.15;;;1.80;;
73239;SDS011;61452;40.054;4.110;2023-05-27T19:09:41;2.28;;;1.80;;
73239;SDS011;61452;40.054;4.110;2023-05-27T19:14:43;3.28;;;2.10;;
73239;SDS011;61452;40.054;4.110;2023-05-27T19:19:45;2.75;;;2.00;;
73239;SDS011;61452;40.054;4.110;2023-05-27T19:24:47;4.90;;;2.08;;
73239;SDS011;61452;40.054;4.110;2023-05-27T19:29:49;2.45;;;1.83;;
73239;SDS011;61452;40.054;4.110;2023-05-27T19:34:51;2.25;;;1.98;;
73239;SDS011;61452;40.054;4.110;2023-05-27T19:39:54;3.03;;;1.98;;
73239;SDS011;61452;40.054;4.110;2023-05-27T19:44:57;2.45;;;2.15;;
73239;SDS011;61452;40.054;4.110;2023-05-27T19:50:01;2.85;;;1.88;;
73239;SDS011;61452;40.054;4.110;2023-05-27T19:55:03;2.17;;;1.80;;
73239;SDS011;61452;40.054;4.110;2023-05-27T20:00:06;2.10;;;1.73;;
73239;SDS011;61452;40.054;4.110;2023-05-27T20:05:11;1.77;;;1.45;;
73239;SDS011;61452;40.054;4.110;2023-05-27T20:10:13;3.20;;;1.92;;
73239;SDS011;61452;40.054;4.110;2023-05-27T20:15:15;2.40;;;1.95;;
73239;SDS011;61452;40.054;4.110;2023-05-27T20:20:17;2.10;;;1.85;;
73239;SDS011;61452;40.054;4.110;2023-05-27T20:25:22;2.95;;;1.90;;
73239;SDS011;61452;40.054;4.110;2023-05-27T20:30:24;2.30;;;1.80;;
73239;SDS011;61452;40.054;4.110;2023-05-27T20:35:27;2.55;;;1.63;;
73239;SDS011;61452;40.054;4.110;2023-05-27T20:40:29;3.42;;;2.10;;
73239;SDS011;61452;40.054;4.110;2023-05-27T20:45:32;2.97;;;1.65;;
73239;SDS011;61452;40.054;4.110;2023-05-27T20:50:35;3.05;;;1.88;;
73239;SDS011;61452;40.054;4.110;2023-05-27T20:55:37;2.72;;;1.70;;
73239;SDS011;61452;40.054;4.110;2023-05-27T21:00:39;3.28;;;1.80;;
73239;SDS011;61452;40.054;4.110;2023-05-27T21:05:41;3.10;;;1.88;;
73239;SDS011;61452;40.054;4.110;2023-05-27T21:10:43;2.22;;;1.80;;
73239;SDS011;61452;40.054;4.110;2023-05-27T21:15:45;2.72;;;1.90;;
73239;SDS011;61452;40.054;4.110;2023-05-27T21:20:47;2.58;;;2.13;;
73239;SDS011;61452;40.054;4.110;2023-05-27T21:25:50;2.13;;;1.70;;
73239;SDS011;61452;40.054;4.110;2023-05-27T21:30:53;2.63;;;1.90;;
73239;SDS011;61452;40.054;4.110;2023-05-27T21:35:55;2.25;;;1.92;;
73239;SDS011;61452;40.054;4.110;2023-05-27T21:40:59;2.90;;;1.88;;
73239;SDS011;61452;40.054;4.110;2023-05-27T21:46:01;2.17;;;1.90;;
73239;SDS011;61452;40.054;4.110;2023-05-27T21:51:03;2.63;;;1.73;;
73239;SDS011;61452;40.054;4.110;2023-05-27T21:56:06;2.50;;;2.20;;
73239;SDS011;61452;40.054;4.110;2023-05-27T22:01:09;3.92;;;2.17;;
73239;SDS011;61452;40.054;4.110;2023-05-27T22:06:15;2.20;;;1.80;;
73239;SDS011;61452;40.054;4.110;2023-05-27T22:11:17;2.97;;;2.00;;
73239;SDS011;61452;40.054;4.110;2023-05-27T22:16:19;2.30;;;1.92;;
73239;SDS011;61452;40.054;4.110;2023-05-27T22:21:22;2.00;;;1.70;;
73239;SDS011;61452;40.054;4.110;2023-05-27T22:26:30;1.92;;;1.73;;
73239;SDS011;61452;40.054;4.110;2023-05-27T22:31:32;2.85;;;1.77;;
73239;SDS011;61452;40.054;4.110;2023-05-27T22:36:35;2.80;;;1.60;;
73239;SDS011;61452;40.054;4.110;2023-05-27T22:41:37;3.28;;;2.38;;
73239;SDS011;61452;40.054;4.110;2023-05-27T22:46:39;2.22;;;1.90;;
73239;SDS011;61452;40.054;4.110;2023-05-27T22:51:42;2.25;;;1.70;;
73239;SDS011;61452;40.054;4.110;2023-05-27T22:56:43;2.97;;;1.63;;
73239;SDS011;61452;40.054;4.110;2023-05-27T23:01:46;2.50;;;1.90;;
73239;SDS011;61452;40.054;4.110;2023-05-27T23:06:48;2.60;;;1.85;;
73239;SDS011;61452;40.054;4.110;2023-05-27T23:11:50;3.05;;;2.00;;
73239;SDS011;61452;40.054;4.110;2023-05-27T23:16:52;3.75;;;2.00;;
73239;SDS011;61452;40.054;4.110;2023-05-27T23:21:56;1.83;;;1.60;;
73239;SDS011;61452;40.054;4.110;2023-05-27T23:26:58;3.88;;;2.50;;
73239;SDS011;61452;40.054;4.110;2023-05-27T23:32:01;2.25;;;1.88;;
73239;SDS011;61452;40.054;4.110;2023-05-27T23:37:03;2.35;;;1.77;;
73239;SDS011;61452;40.054;4.110;2023-05-27T23:42:06;2.28;;;1.77;;
73239;SDS011;61452;40.054;4.110;2023-05-27T23:47:08;2.78;;;2.00;;
73239;SDS011;61452;40.054;4.110;2023-05-27T23:52:11;2.38;;;1.85;;
73239;SDS011;61452;40.054;4.110;2023-05-27T23:57:13;2.22;;;1.80;;
